createdAt,value
2022-12-08T00:01:11.156Z,-3.39
2022-12-08T00:03:38.365Z,-3.48
2022-12-08T00:06:25.013Z,-3.53
2022-12-08T00:09:10.571Z,-3.55
2022-12-08T00:11:37.159Z,-3.72
2022-12-08T00:14:03.661Z,-3.78
2022-12-08T00:16:30.204Z,-3.65
2022-12-08T00:18:56.763Z,-3.73
2022-12-08T00:21:23.501Z,-3.78
2022-12-08T00:23:49.984Z,-3.74
2022-12-08T00:26:16.589Z,-3.78
2022-12-08T00:28:43.356Z,-3.77
2022-12-08T00:31:11.436Z,-3.79
2022-12-08T00:33:38.572Z,-3.74
2022-12-08T00:36:11.067Z,-3.81
2022-12-08T00:38:38.737Z,-3.85
2022-12-08T00:41:12.771Z,-3.89
2022-12-08T00:43:39.407Z,-3.85
2022-12-08T00:46:06.220Z,-3.90
2022-12-08T00:48:33.752Z,-3.94
2022-12-08T00:51:00.410Z,-3.90
2022-12-08T00:53:26.915Z,-3.84
2022-12-08T00:55:53.572Z,-3.90
2022-12-08T00:58:20.079Z,-3.90
2022-12-08T01:00:46.676Z,-3.91
2022-12-08T01:03:13.437Z,-3.95
2022-12-08T01:05:40.009Z,-4.00
2022-12-08T01:08:07.562Z,-3.94
2022-12-08T01:10:39.488Z,-3.95
2022-12-08T01:13:05.894Z,-4.01
2022-12-08T01:15:32.410Z,-3.97
2022-12-08T01:17:58.955Z,-3.94
2022-12-08T01:20:25.625Z,-4.02
2022-12-08T01:22:52.180Z,-3.96
2022-12-08T01:25:18.716Z,-3.94
2022-12-08T01:27:45.248Z,-3.95
2022-12-08T01:30:13.226Z,-3.92
2022-12-08T01:32:39.839Z,-3.99
2022-12-08T01:35:06.512Z,-3.99
2022-12-08T01:37:33.490Z,-4.00
2022-12-08T01:39:59.983Z,-4.00
2022-12-08T01:42:26.549Z,-4.12
2022-12-08T01:44:54.651Z,-4.13
2022-12-08T01:47:22.954Z,-4.18
2022-12-08T01:49:49.527Z,-4.11
2022-12-08T01:52:37.833Z,-4.11
2022-12-08T01:55:10.306Z,-4.12
2022-12-08T01:57:47.244Z,-4.11
2022-12-08T02:00:16.890Z,-4.06
2022-12-08T02:02:59.433Z,-4.07
2022-12-08T02:05:29.753Z,-4.06
2022-12-08T02:07:57.822Z,-4.12
2022-12-08T02:10:29.155Z,-4.10
2022-12-08T02:12:58.033Z,-4.13
2022-12-08T02:16:09.531Z,-4.21
2022-12-08T02:19:28.916Z,-4.13
2022-12-08T02:22:11.772Z,-4.18
2022-12-08T02:25:00.200Z,-4.25
2022-12-08T02:27:40.162Z,-4.25
2022-12-08T02:30:12.423Z,-4.24
2022-12-08T02:33:16.686Z,-4.24
2022-12-08T02:35:49.379Z,-4.32
2022-12-08T02:38:24.207Z,-4.32
2022-12-08T02:41:06.036Z,-4.31
2022-12-08T02:43:38.205Z,-4.24
2022-12-08T02:46:24.933Z,-4.29
2022-12-08T02:48:52.530Z,-4.29
2022-12-08T02:51:19.719Z,-4.25
2022-12-08T02:53:47.206Z,-4.19
2022-12-08T02:56:46.284Z,-4.11
2022-12-08T02:59:27.702Z,-4.09
2022-12-08T03:02:00.992Z,-4.09
2022-12-08T03:05:04.870Z,-4.14
2022-12-08T03:07:53.051Z,-4.28
2022-12-08T03:10:29.681Z,-4.29
2022-12-08T03:13:07.680Z,-4.25
2022-12-08T03:15:36.862Z,-4.26
2022-12-08T03:18:05.295Z,-4.36
2022-12-08T03:20:34.879Z,-4.29
2022-12-08T03:23:05.880Z,-4.31
2022-12-08T03:25:37.908Z,-4.30
2022-12-08T03:28:05.906Z,-4.27
2022-12-08T03:30:38.739Z,-4.24
2022-12-08T03:33:13.856Z,-4.22
2022-12-08T03:35:41.734Z,-4.14
2022-12-08T03:38:14.750Z,-4.05
2022-12-08T03:40:41.360Z,-3.97
2022-12-08T03:43:08.110Z,-3.86
2022-12-08T03:45:41.123Z,-3.76
2022-12-08T03:48:12.948Z,-3.76
2022-12-08T03:50:39.678Z,-3.77
2022-12-08T03:53:06.202Z,-3.73
2022-12-08T03:55:32.714Z,-3.61
2022-12-08T03:57:59.237Z,-3.53
2022-12-08T04:00:25.906Z,-3.53
2022-12-08T04:02:52.430Z,-3.46
2022-12-08T04:05:18.930Z,-3.44
2022-12-08T04:07:45.470Z,-3.53
2022-12-08T04:10:12.096Z,-3.63
2022-12-08T04:12:38.702Z,-3.70
2022-12-08T04:15:05.597Z,-3.63
2022-12-08T04:17:32.706Z,-3.54
2022-12-08T04:20:26.724Z,-3.51
2022-12-08T04:23:18.134Z,-3.48
2022-12-08T04:26:01.074Z,-3.57
2022-12-08T04:28:48.104Z,-3.58
2022-12-08T04:31:20.533Z,-3.51
2022-12-08T04:33:47.241Z,-3.57
2022-12-08T04:36:13.846Z,-3.55
2022-12-08T04:38:40.412Z,-3.51
2022-12-08T04:41:06.953Z,-3.52
2022-12-08T04:43:33.518Z,-3.61
2022-12-08T04:46:00.030Z,-3.62
2022-12-08T04:48:26.576Z,-3.58
2022-12-08T04:50:53.140Z,-3.57
2022-12-08T04:53:20.073Z,-3.56
2022-12-08T04:55:48.648Z,-3.69
2022-12-08T04:58:18.913Z,-3.62
2022-12-08T05:00:46.399Z,-3.77
2022-12-08T05:03:13.891Z,-3.80
2022-12-08T05:05:42.071Z,-3.87
2022-12-08T05:08:09.945Z,-4.00
2022-12-08T05:10:36.859Z,-3.98
2022-12-08T05:13:03.368Z,-4.05
2022-12-08T05:15:30.022Z,-4.07
2022-12-08T05:17:56.534Z,-4.03
2022-12-08T05:20:23.047Z,-4.06
2022-12-08T05:22:49.590Z,-4.10
2022-12-08T05:25:16.116Z,-4.15
2022-12-08T05:27:43.101Z,-4.13
2022-12-08T05:30:09.810Z,-4.13
2022-12-08T05:32:36.482Z,-4.04
2022-12-08T05:35:03.124Z,-3.94
2022-12-08T05:37:29.658Z,-3.96
2022-12-08T05:39:56.251Z,-3.97
2022-12-08T05:42:24.901Z,-3.90
2022-12-08T05:44:52.137Z,-3.91
2022-12-08T05:47:18.646Z,-3.82
2022-12-08T05:49:45.354Z,-3.93
2022-12-08T05:52:11.900Z,-3.91
2022-12-08T05:54:39.386Z,-3.97
2022-12-08T05:57:05.916Z,-3.89
2022-12-08T05:59:32.572Z,-3.89
2022-12-08T06:01:59.209Z,-3.80
2022-12-08T06:04:25.975Z,-3.76
2022-12-08T06:06:52.629Z,-3.66
2022-12-08T06:09:19.119Z,-3.69
2022-12-08T06:11:47.099Z,-3.65
2022-12-08T06:14:13.938Z,-3.65
2022-12-08T06:16:40.621Z,-3.66
2022-12-08T06:19:07.461Z,-3.56
2022-12-08T06:21:34.142Z,-3.55
2022-12-08T06:24:00.702Z,-3.49
2022-12-08T06:26:27.544Z,-3.45
2022-12-08T06:28:54.090Z,-3.36
2022-12-08T06:31:24.623Z,-3.36
2022-12-08T06:33:52.002Z,-3.37
2022-12-08T06:36:20.430Z,-3.31
2022-12-08T06:38:47.379Z,-3.30
2022-12-08T06:41:14.559Z,-3.28
2022-12-08T06:43:41.652Z,-3.28
2022-12-08T06:46:11.532Z,-3.30
2022-12-08T06:48:38.287Z,-3.28
2022-12-08T06:51:13.324Z,-3.20
2022-12-08T06:53:43.227Z,-3.32
2022-12-08T06:56:10.493Z,-3.35
2022-12-08T06:58:37.002Z,-3.27
2022-12-08T07:01:05.865Z,-3.25
2022-12-08T07:03:32.564Z,-3.25
2022-12-08T07:06:03.758Z,-3.26
2022-12-08T07:08:31.523Z,-3.24
2022-12-08T07:10:58.080Z,-3.33
2022-12-08T07:13:24.675Z,-3.37
2022-12-08T07:15:51.359Z,-3.39
2022-12-08T07:18:17.948Z,-3.28
2022-12-08T07:20:44.502Z,-3.19
2022-12-08T07:23:11.046Z,-3.14
2022-12-08T07:25:37.550Z,-3.03
2022-12-08T07:28:08.282Z,-2.91
2022-12-08T07:30:34.822Z,-2.92
2022-12-08T07:33:02.936Z,-2.78
2022-12-08T07:35:29.463Z,-2.85
2022-12-08T07:37:56.076Z,-2.70
2022-12-08T07:40:22.788Z,-2.69
2022-12-08T07:42:49.303Z,-2.60
2022-12-08T07:45:15.873Z,-2.54
2022-12-08T07:47:42.410Z,-2.45
2022-12-08T07:50:08.955Z,-2.41
2022-12-08T07:52:35.846Z,-2.34
2022-12-08T07:55:02.500Z,-2.21
2022-12-08T07:57:29.016Z,-2.07
2022-12-08T07:59:55.519Z,-2.19
2022-12-08T08:02:24.634Z,-2.06
2022-12-08T08:04:52.783Z,-2.02
2022-12-08T08:07:19.381Z,-1.93
2022-12-08T08:09:46.002Z,-1.83
2022-12-08T08:15:00.099Z,-1.62
2022-12-08T08:17:26.818Z,-1.47
2022-12-08T08:19:53.397Z,-1.50
2022-12-08T08:22:19.894Z,-1.48
2022-12-08T08:24:46.382Z,-1.42
2022-12-08T08:27:13.951Z,-1.41
2022-12-08T08:29:40.532Z,-1.37
2022-12-08T08:32:07.165Z,-1.33
2022-12-08T08:34:33.788Z,-1.21
2022-12-08T08:37:00.471Z,-1.17
2022-12-08T08:39:27.355Z,-1.21
2022-12-08T08:41:53.898Z,-1.27
2022-12-08T08:44:20.386Z,-1.25
2022-12-08T08:46:47.140Z,-1.22
2022-12-08T08:49:14.020Z,-1.19
2022-12-08T08:51:40.645Z,-1.25
2022-12-08T08:54:07.185Z,-1.26
2022-12-08T08:56:33.712Z,-1.24
2022-12-08T08:59:00.301Z,-1.23
2022-12-08T09:01:28.104Z,-1.18
2022-12-08T09:03:55.557Z,-1.05
2022-12-08T09:06:23.158Z,-1.01
2022-12-08T09:08:49.875Z,-1.04
2022-12-08T09:11:18.643Z,-0.90
2022-12-08T09:13:49.471Z,-0.94
2022-12-08T09:16:17.055Z,-0.83
2022-12-08T09:18:43.690Z,-0.75
2022-12-08T09:21:22.383Z,-0.76
2022-12-08T09:23:50.660Z,-0.77
2022-12-08T09:26:17.237Z,-0.70
2022-12-08T09:28:46.442Z,-0.62
2022-12-08T09:31:14.835Z,-0.50
2022-12-08T09:33:41.544Z,-0.45
2022-12-08T09:36:08.760Z,-0.56
2022-12-08T09:38:35.989Z,-0.59
2022-12-08T09:41:11.203Z,-0.44
2022-12-08T09:43:44.825Z,-0.43
2022-12-08T09:46:15.110Z,-0.32
2022-12-08T09:48:55.449Z,-0.35
2022-12-08T09:51:25.531Z,-0.34
2022-12-08T09:53:56.947Z,-0.32
2022-12-08T09:56:27.563Z,-0.12
2022-12-08T09:59:02.068Z,-0.13
2022-12-08T10:01:41.970Z,-0.03
2022-12-08T10:04:38.344Z,-0.02
2022-12-08T10:07:23.678Z,0.08
2022-12-08T10:10:22.646Z,-0.00
2022-12-08T10:13:03.496Z,0.01
2022-12-08T10:15:41.677Z,0.01
2022-12-08T10:18:20.980Z,0.07
2022-12-08T10:20:50.182Z,0.12
2022-12-08T10:23:36.608Z,0.04
2022-12-08T10:26:12.794Z,0.12
2022-12-08T10:28:44.748Z,0.17
2022-12-08T10:31:21.425Z,0.16
2022-12-08T10:33:55.190Z,0.20
2022-12-08T10:36:21.757Z,0.16
2022-12-08T10:38:48.240Z,0.27
2022-12-08T10:41:18.075Z,0.17
2022-12-08T10:43:48.605Z,0.35
2022-12-08T10:46:27.045Z,0.41
2022-12-08T10:49:13.038Z,0.34
2022-12-08T10:51:41.892Z,0.40
2022-12-08T10:54:28.881Z,0.49
2022-12-08T10:56:57.107Z,0.35
2022-12-08T10:59:25.617Z,0.39
2022-12-08T11:01:55.052Z,0.35
2022-12-08T11:04:39.535Z,0.39
2022-12-08T11:07:08.555Z,0.51
2022-12-08T11:09:50.726Z,0.45
2022-12-08T11:12:19.384Z,0.58
2022-12-08T11:14:45.906Z,0.68
2022-12-08T11:17:26.997Z,0.51
2022-12-08T11:20:08.976Z,0.52
2022-12-08T11:22:43.671Z,0.53
2022-12-08T11:25:16.404Z,0.67
2022-12-08T11:27:46.283Z,0.61
2022-12-08T11:30:21.436Z,0.72
2022-12-08T11:32:56.115Z,0.83
2022-12-08T11:35:28.487Z,0.77
2022-12-08T11:38:27.950Z,0.80
2022-12-08T11:41:03.400Z,0.69
2022-12-08T11:43:40.791Z,0.82
2022-12-08T11:46:20.152Z,0.95
2022-12-08T11:48:50.526Z,0.93
2022-12-08T11:51:32.128Z,0.97
2022-12-08T11:54:32.183Z,0.99
2022-12-08T11:57:01.839Z,1.09
2022-12-08T11:59:41.663Z,1.13
2022-12-08T12:02:15.939Z,1.17
2022-12-08T12:05:02.957Z,1.14
2022-12-08T12:07:59.506Z,1.12
2022-12-08T12:10:32.400Z,1.17
2022-12-08T12:13:19.940Z,1.17
2022-12-08T12:15:49.690Z,1.19
2022-12-08T12:18:31.202Z,1.20
2022-12-08T12:21:19.198Z,1.10
2022-12-08T12:23:52.975Z,0.92
2022-12-08T12:26:23.512Z,0.99
2022-12-08T12:29:14.688Z,1.02
2022-12-08T12:31:47.234Z,0.95
2022-12-08T12:34:50.921Z,0.89
2022-12-08T12:37:22.067Z,0.77
2022-12-08T12:40:11.952Z,0.54
2022-12-08T12:42:46.599Z,0.48
2022-12-08T12:45:16.262Z,0.56
2022-12-08T12:47:54.315Z,0.55
2022-12-08T12:50:34.933Z,0.53
2022-12-08T12:53:09.144Z,0.56
2022-12-08T12:55:55.834Z,0.70
2022-12-08T12:58:35.740Z,0.74
2022-12-08T13:01:14.120Z,0.67
2022-12-08T13:03:47.396Z,0.58
2022-12-08T13:06:21.516Z,0.61
2022-12-08T13:08:55.129Z,0.64
2022-12-08T13:11:23.251Z,0.61
2022-12-08T13:14:03.607Z,0.59
2022-12-08T13:16:37.581Z,0.61
2022-12-08T13:19:12.566Z,0.56
2022-12-08T13:21:39.915Z,0.51
2022-12-08T13:24:26.888Z,0.61
2022-12-08T13:27:13.594Z,0.57
2022-12-08T13:29:40.419Z,0.51
2022-12-08T13:32:06.851Z,0.58
2022-12-08T13:34:52.998Z,0.74
2022-12-08T13:37:29.471Z,0.84
2022-12-08T13:40:07.529Z,0.79
2022-12-08T13:42:43.160Z,0.79
2022-12-08T13:45:33.509Z,0.71
2022-12-08T13:48:41.672Z,0.80
2022-12-08T13:57:25.879Z,0.69
2022-12-08T13:59:52.497Z,0.66
2022-12-08T14:02:49.067Z,0.72
2022-12-08T14:05:34.622Z,0.77
2022-12-08T14:08:58.001Z,0.77
2022-12-08T14:11:38.012Z,0.66
2022-12-08T14:14:13.041Z,0.62
2022-12-08T14:16:43.521Z,0.42
2022-12-08T14:19:22.788Z,0.47
2022-12-08T14:21:59.608Z,0.38
2022-12-08T14:24:28.547Z,0.40
2022-12-08T14:26:59.434Z,0.47
2022-12-08T14:29:41.622Z,0.49
2022-12-08T14:32:34.130Z,0.51
2022-12-08T14:35:06.529Z,0.49
2022-12-08T14:37:47.333Z,0.45
2022-12-08T14:40:23.142Z,0.45
2022-12-08T14:43:07.925Z,0.41
2022-12-08T14:45:40.521Z,0.40
2022-12-08T14:48:39.096Z,0.32
2022-12-08T14:51:21.234Z,0.13
2022-12-08T14:54:01.053Z,-0.07
2022-12-08T14:56:38.030Z,-0.16
2022-12-08T14:59:17.581Z,-0.15
2022-12-08T15:01:45.581Z,-0.13
2022-12-08T15:04:12.082Z,-0.08
2022-12-08T15:06:54.259Z,0.01
2022-12-08T15:09:40.974Z,-0.05
2022-12-08T15:12:13.700Z,-0.07
2022-12-08T15:14:58.146Z,-0.24
2022-12-08T15:17:40.023Z,-0.32
2022-12-08T15:20:07.591Z,-0.35
2022-12-08T15:22:34.407Z,-0.31
2022-12-08T15:25:00.895Z,-0.23
2022-12-08T15:27:27.589Z,-0.26
2022-12-08T15:29:54.170Z,-0.29
2022-12-08T15:32:22.820Z,-0.27
2022-12-08T15:34:50.250Z,-0.33
2022-12-08T15:37:22.912Z,-0.47
2022-12-08T15:39:49.861Z,-0.55
2022-12-08T15:42:16.848Z,-0.49
2022-12-08T15:44:43.710Z,-0.39
2022-12-08T15:47:19.080Z,-0.39
2022-12-08T15:49:46.584Z,-0.45
2022-12-08T15:52:15.543Z,-0.58
2022-12-08T15:54:42.276Z,-0.63
2022-12-08T15:57:53.076Z,-0.63
2022-12-08T16:04:09.343Z,-0.77
2022-12-08T16:09:12.708Z,-0.94
2022-12-08T16:12:08.550Z,-0.99
2022-12-08T16:17:22.774Z,-1.13
2022-12-08T16:19:49.526Z,-1.27
2022-12-08T16:25:18.353Z,-1.12
2022-12-08T16:30:34.160Z,-1.03
2022-12-08T16:33:00.912Z,-1.05
2022-12-08T16:35:27.412Z,-0.96
2022-12-08T16:37:54.021Z,-0.93
2022-12-08T16:40:20.941Z,-0.87
2022-12-08T16:42:49.749Z,-0.86
2022-12-08T16:45:22.295Z,-0.87
2022-12-08T16:47:52.309Z,-0.94
2022-12-08T16:50:23.574Z,-1.00
2022-12-08T16:52:55.488Z,-1.01
2022-12-08T16:55:22.011Z,-0.92
2022-12-08T16:57:48.622Z,-0.89
2022-12-08T17:00:19.267Z,-0.88
2022-12-08T17:02:46.236Z,-0.97
2022-12-08T17:05:15.042Z,-1.09
2022-12-08T17:07:43.258Z,-1.10
2022-12-08T17:10:12.530Z,-1.22
2022-12-08T17:12:39.316Z,-1.25
2022-12-08T17:15:08.758Z,-1.21
2022-12-08T17:17:35.878Z,-1.17
2022-12-08T17:20:07.025Z,-1.16
2022-12-08T17:22:35.061Z,-1.20
2022-12-08T17:25:02.307Z,-1.17
2022-12-08T17:27:29.000Z,-1.16
2022-12-08T17:29:55.512Z,-1.21
2022-12-08T17:32:22.149Z,-1.18
2022-12-08T17:34:48.933Z,-1.13
2022-12-08T17:37:15.516Z,-1.15
2022-12-08T17:39:42.074Z,-1.21
2022-12-08T17:42:08.938Z,-1.29
2022-12-08T17:44:35.643Z,-1.26
2022-12-08T17:47:03.979Z,-1.23
2022-12-08T17:49:32.765Z,-1.26
2022-12-08T17:52:01.723Z,-1.22
2022-12-08T17:54:29.131Z,-1.22
2022-12-08T17:56:59.441Z,-1.22
2022-12-08T17:59:28.078Z,-1.21
2022-12-08T18:01:56.548Z,-1.26
2022-12-08T18:04:24.382Z,-1.17
2022-12-08T18:06:51.107Z,-1.17
2022-12-08T18:09:17.917Z,-1.21
2022-12-08T18:11:46.411Z,-1.27
2022-12-08T18:14:14.547Z,-1.38
2022-12-08T18:16:44.102Z,-1.47
2022-12-08T18:19:12.025Z,-1.50
2022-12-08T18:21:38.883Z,-1.52
2022-12-08T18:24:08.119Z,-1.44
2022-12-08T18:26:35.143Z,-1.46
2022-12-08T18:29:01.939Z,-1.48
2022-12-08T18:31:28.632Z,-1.56
2022-12-08T18:33:55.205Z,-1.72
2022-12-08T18:36:25.084Z,-1.85
2022-12-08T18:38:52.867Z,-1.90
2022-12-08T18:41:24.551Z,-1.99
2022-12-08T18:43:52.007Z,-2.04
2022-12-08T18:46:18.692Z,-1.99
2022-12-08T18:48:47.707Z,-1.91
2022-12-08T18:51:19.626Z,-1.91
2022-12-08T18:53:46.880Z,-1.99
2022-12-08T18:56:27.717Z,-2.08
2022-12-08T18:59:03.164Z,-2.18
2022-12-08T19:01:31.844Z,-2.16
2022-12-08T19:04:27.526Z,-2.17
2022-12-08T19:06:52.680Z,-2.24
2022-12-08T19:09:19.981Z,-2.25
2022-12-08T19:11:46.777Z,-2.31
2022-12-08T19:14:14.845Z,-2.37
2022-12-08T19:16:41.466Z,-2.49
2022-12-08T19:19:07.952Z,-2.56
2022-12-08T19:21:34.506Z,-2.69
2022-12-08T19:24:01.671Z,-2.76
2022-12-08T19:26:28.633Z,-2.87
2022-12-08T19:28:55.576Z,-2.82
2022-12-08T19:31:22.184Z,-2.79
2022-12-08T19:33:48.736Z,-2.90
2022-12-08T19:36:18.279Z,-2.89
2022-12-08T19:39:04.241Z,-2.87
2022-12-08T19:41:50.237Z,-2.87
2022-12-08T19:44:41.971Z,-2.96
2022-12-08T19:47:09.027Z,-3.14
2022-12-08T19:49:35.840Z,-3.09
2022-12-08T19:52:02.593Z,-3.09
2022-12-08T19:54:29.199Z,-3.19
2022-12-08T19:56:55.868Z,-3.32
2022-12-08T19:59:26.104Z,-3.28
2022-12-08T20:01:58.741Z,-3.27
2022-12-08T20:04:26.939Z,-3.34
2022-12-08T20:06:55.299Z,-3.31
2022-12-08T20:09:22.690Z,-3.31
2022-12-08T20:11:50.744Z,-3.30
2022-12-08T20:14:18.398Z,-3.34
2022-12-08T20:16:45.196Z,-3.41
2022-12-08T20:19:11.932Z,-3.44
2022-12-08T20:21:39.645Z,-3.41
2022-12-08T20:24:06.856Z,-3.40
2022-12-08T20:26:33.490Z,-3.49
2022-12-08T20:29:00.336Z,-3.48
2022-12-08T20:31:29.734Z,-3.52
2022-12-08T20:33:56.345Z,-3.56
2022-12-08T20:36:23.339Z,-3.63
2022-12-08T20:38:52.242Z,-3.72
2022-12-08T20:41:20.479Z,-3.73
2022-12-08T20:43:48.032Z,-3.73
2022-12-08T20:46:16.476Z,-3.70
2022-12-08T20:48:44.152Z,-3.69
2022-12-08T20:51:18.437Z,-3.69
2022-12-08T20:53:45.719Z,-3.85
2022-12-08T20:56:18.267Z,-3.79
2022-12-08T20:58:45.532Z,-3.80
2022-12-08T21:01:16.051Z,-3.85
2022-12-08T21:03:44.518Z,-3.83
2022-12-08T21:06:11.855Z,-3.85
2022-12-08T21:08:39.767Z,-3.92
2022-12-08T21:11:07.964Z,-4.03
2022-12-08T21:13:36.724Z,-4.02
2022-12-08T21:16:03.473Z,-4.02
2022-12-08T21:18:34.417Z,-4.05
2022-12-08T21:21:06.926Z,-4.06
2022-12-08T21:23:34.427Z,-4.15
2022-12-08T21:26:01.200Z,-4.27
2022-12-08T21:28:27.997Z,-4.22
2022-12-08T21:30:54.644Z,-4.24
2022-12-08T21:33:21.238Z,-4.23
2022-12-08T21:35:48.157Z,-4.28
2022-12-08T21:38:17.137Z,-4.32
2022-12-08T21:40:44.247Z,-4.33
2022-12-08T21:43:11.906Z,-4.28
2022-12-08T21:45:38.415Z,-4.27
2022-12-08T21:48:11.645Z,-4.37
2022-12-08T21:50:38.719Z,-4.43
2022-12-08T21:53:05.286Z,-4.35
2022-12-08T21:55:31.905Z,-4.22
2022-12-08T21:58:01.021Z,-4.13
2022-12-08T22:00:28.065Z,-4.17
2022-12-08T22:02:55.110Z,-4.28
2022-12-08T22:05:21.714Z,-4.24
2022-12-08T22:07:48.494Z,-4.20
2022-12-08T22:10:15.393Z,-4.19
2022-12-08T22:12:42.120Z,-4.14
2022-12-08T22:15:10.294Z,-4.15
2022-12-08T22:17:39.019Z,-4.21
2022-12-08T22:20:08.000Z,-4.33
2022-12-08T22:22:35.358Z,-4.27
2022-12-08T22:25:03.541Z,-4.16
2022-12-08T22:27:30.510Z,-4.20
2022-12-08T22:29:57.175Z,-4.25
2022-12-08T22:32:24.025Z,-4.30
2022-12-08T22:34:51.042Z,-4.26
2022-12-08T22:37:17.825Z,-4.28
2022-12-08T22:39:44.542Z,-4.28
2022-12-08T22:42:11.244Z,-4.32
2022-12-08T22:44:38.071Z,-4.34
2022-12-08T22:47:05.046Z,-4.39
2022-12-08T22:49:31.809Z,-4.42
2022-12-08T22:51:58.960Z,-4.35
2022-12-08T22:54:26.722Z,-4.33
2022-12-08T22:56:53.469Z,-4.30
2022-12-08T22:59:20.024Z,-4.37
2022-12-08T23:01:46.671Z,-4.45
2022-12-08T23:04:17.749Z,-4.47
2022-12-08T23:06:44.787Z,-4.45
2022-12-08T23:09:11.991Z,-4.44
2022-12-08T23:11:38.723Z,-4.42
2022-12-08T23:14:05.296Z,-4.40
2022-12-08T23:16:33.490Z,-4.40
2022-12-08T23:19:00.317Z,-4.38
2022-12-08T23:21:27.222Z,-4.44
2022-12-08T23:23:53.979Z,-4.41
2022-12-08T23:26:21.960Z,-4.54
2022-12-08T23:28:49.560Z,-4.47
2022-12-08T23:31:17.395Z,-4.33
2022-12-08T23:33:44.844Z,-4.33
2022-12-08T23:36:12.447Z,-4.38
2022-12-08T23:38:39.423Z,-4.30
2022-12-08T23:41:08.595Z,-4.21
2022-12-08T23:43:36.090Z,-4.23
2022-12-08T23:46:03.672Z,-4.39
2022-12-08T23:48:34.321Z,-4.34
2022-12-08T23:51:01.979Z,-4.33
2022-12-08T23:53:29.963Z,-4.32
2022-12-08T23:56:05.725Z,-4.45
2022-12-08T23:58:32.847Z,-4.40
